createdAt,value
2018-12-12T00:06:15.646Z,87.8
2018-12-12T00:21:25.815Z,88.2
2018-12-12T00:36:39.238Z,87.1
2018-12-12T00:51:50.739Z,87.2
2018-12-12T01:07:04.625Z,88.9
2018-12-12T01:22:08.004Z,88.3
2018-12-12T01:37:25.423Z,88.2
2018-12-12T01:52:37.148Z,88.4
2018-12-12T02:07:48.840Z,88.5
2018-12-12T02:23:00.427Z,88.2
2018-12-12T02:38:12.187Z,87.9
2018-12-12T02:53:23.860Z,87.8
2018-12-12T03:08:35.576Z,87.7
2018-12-12T03:23:47.039Z,88.4
2018-12-12T03:38:58.457Z,88.8
2018-12-12T03:54:10.368Z,89
2018-12-12T04:09:22.019Z,90.3
2018-12-12T04:24:33.951Z,89.5
2018-12-12T04:39:40.275Z,89.4
2018-12-12T04:54:56.899Z,89.7
2018-12-12T05:10:08.456Z,90.2
2018-12-12T05:25:20.001Z,91.2
2018-12-12T05:40:31.477Z,90.4
2018-12-12T05:55:43.010Z,90.4
2018-12-12T06:10:54.888Z,90.1
2018-12-12T06:26:06.303Z,90.2
2018-12-12T06:41:17.902Z,90
2018-12-12T06:56:29.468Z,90.4
2018-12-12T07:11:41.122Z,90.8
2018-12-12T07:26:52.822Z,90.3
2018-12-12T07:42:05.195Z,90.2
2018-12-12T07:57:11.807Z,90.1
2018-12-12T08:12:28.168Z,88.5
2018-12-12T08:27:40.427Z,87.7
2018-12-12T08:42:51.816Z,87.2
2018-12-12T08:57:56.430Z,87
2018-12-12T09:13:15.667Z,87.1
2018-12-12T09:28:27.190Z,87.3
2018-12-12T09:43:39.246Z,87
2018-12-12T09:58:50.881Z,85.4
2018-12-12T10:14:02.844Z,84.4
2018-12-12T10:29:14.958Z,84.6
2018-12-12T10:44:26.665Z,82.5
2018-12-12T10:59:38.695Z,81.4
2018-12-12T11:14:46.329Z,79.5
2018-12-12T11:30:02.771Z,78.5
2018-12-12T11:45:14.750Z,76.7
2018-12-12T12:00:26.951Z,75.4
2018-12-12T12:15:40.104Z,74
2018-12-12T12:30:51.189Z,73.5
2018-12-12T12:46:03.492Z,71.8
2018-12-12T13:01:15.542Z,73.5
2018-12-12T13:16:27.875Z,72.7
2018-12-12T13:31:39.002Z,74.3
2018-12-12T13:46:52.598Z,74
2018-12-12T14:02:04.137Z,75.5
2018-12-12T14:17:16.164Z,75
2018-12-12T14:32:22.324Z,75.8
2018-12-12T14:47:40.158Z,75.3
2018-12-12T15:02:52.293Z,77
2018-12-12T15:18:04.066Z,76.5
2018-12-12T15:33:16.238Z,77.1
2018-12-12T15:48:28.045Z,77.6
2018-12-12T16:03:39.965Z,80.1
2018-12-12T16:18:51.865Z,80.5
2018-12-12T16:34:03.779Z,78.9
2018-12-12T16:49:13.290Z,78.5
2018-12-12T17:04:27.537Z,78.2
2018-12-12T17:19:39.497Z,77.8
2018-12-12T17:34:51.123Z,78.8
2018-12-12T17:49:54.518Z,79
2018-12-12T18:05:15.624Z,77.5
2018-12-12T18:20:26.675Z,80
2018-12-12T18:35:37.752Z,81.2
2018-12-12T18:50:49.228Z,82.7
2018-12-12T19:06:00.848Z,81.5
2018-12-12T19:21:12.548Z,80.4
2018-12-12T19:36:23.851Z,79.9
2018-12-12T19:51:35.511Z,79.8
2018-12-12T20:06:42.221Z,80
2018-12-12T20:21:58.797Z,78.9
2018-12-12T20:37:10.421Z,78.3
2018-12-12T20:52:22.102Z,78.5
2018-12-12T21:07:34.675Z,74.7
2018-12-12T21:22:46.784Z,70.2
2018-12-12T21:37:58.506Z,71.5
2018-12-12T21:53:10.245Z,72.4
2018-12-12T22:08:21.947Z,72.6
2018-12-12T22:23:29.008Z,73.5
2018-12-12T22:38:45.338Z,74.8
2018-12-12T22:53:57.131Z,74.7
2018-12-12T23:09:08.434Z,74.5
2018-12-12T23:24:25.383Z,72.1
2018-12-12T23:30:01.915Z,78.8
2018-12-12T23:45:13.806Z,73.9
